Aérodrome :
LOGIN :

S'inscrire | Disclaimer

   EN    FR    IT 

 










Légende :    VFR   VFR Marginal   IFR   IFR Intensif   IFR Très Intensif
Visi : 
Plafond : 
>= 8 km
>= 3000ft
5 à 8 km
1000 à 3000 ft
1500m à 5 km
500 à 1000 ft
800 à 1500m
200 à 500 ft
< 800m
< 200 ft
Symboles :   Orages  Brouillard  Fortes neiges  Fortes précipitations  Vent > 20 kt
SIGMETs :   Divers  Orages  Givrage  Turbulence  Onde Orograph.  Cendres Volcan.







- Altitude de l'aérodrome : 277 ft
- Code IATA : JER
- Voir les cartes d'approche


EGJJ - Jersey

DERNIER METAR :
  • 180450Z VRB02KT 9999 BKN040 15/13 Q1018

METARs EXPIRÉS :
  • 180420Z AUTO 28003KT 9999 OVC041/// 15/13 Q1018
  • 180350Z AUTO 29003KT 9999 BKN041/// 15/13 Q1018
  • 180320Z AUTO 28002KT 9999 BKN041/// 15/13 Q1018
  • 180250Z AUTO 29003KT 9999 SCT045/// 15/13 Q1018
  • 180220Z AUTO 29005KT CAVOK 15/13 Q1019

TAF TAF EGJJ
Valide du 18 à 03h jusqu'au 18 à 12h UTC


180204Z 1803/1812 VRB05KT 9999 FEW020 BKN045
BECMG 1812/1814 36010KT
ATIS : +44 1534 498 073
Pas de NOTAMs connus pour ce terrain.



MET'MAP, la Météo Aéronautique d'un coup d'oeil ! - Copyright ORBIFLY Décembre 2007 - Disclaimer

ORBIFLY MET'MAP TEAM :

Programmation & Développement : Alexandra Zaïnal
Conception & Développement : Baudouin d'Aumeries
Co-Programmation & Développement : Marc-Olivier Méhu
Soutien technique & logistique : Manuel Goepfert

Contact : metmap@orbifly.com




SOURCES & CREDITS :

   NOAA